createdAt,value
2022-08-22T00:00:30.038Z,4.95
2022-08-22T00:02:46.509Z,4.40
2022-08-22T00:03:12.111Z,5.65
2022-08-22T00:03:32.690Z,6.28
2022-08-22T00:06:34.692Z,5.20
2022-08-22T00:09:26.622Z,4.83
2022-08-22T00:12:18.371Z,4.85
2022-08-22T00:15:00.854Z,5.53
2022-08-22T00:17:40.377Z,5.72
2022-08-22T00:20:28.883Z,4.22
2022-08-22T00:23:02.403Z,4.53
2022-08-22T00:25:42.222Z,5.45
2022-08-22T00:28:21.869Z,8.05
2022-08-22T00:31:18.457Z,9.08
2022-08-22T00:34:10.168Z,7.97
2022-08-22T00:36:49.451Z,6.40
2022-08-22T00:39:31.761Z,5.25
2022-08-22T00:42:29.437Z,5.53
2022-08-22T00:44:58.169Z,7.12
2022-08-22T00:47:58.011Z,6.62
2022-08-22T00:50:46.095Z,6.35
2022-08-22T00:53:40.386Z,6.62
2022-08-22T00:56:25.866Z,7.20
2022-08-22T00:59:08.529Z,7.20
2022-08-22T01:01:40.390Z,10.43
2022-08-22T01:04:45.569Z,8.23
2022-08-22T01:07:21.942Z,6.97
2022-08-22T01:10:21.265Z,8.63
2022-08-22T01:13:10.611Z,8.20
2022-08-22T01:15:43.181Z,7.95
2022-08-22T01:18:25.722Z,6.87
2022-08-22T01:21:14.324Z,8.30
2022-08-22T01:24:13.785Z,8.33
2022-08-22T01:27:12.358Z,7.55
2022-08-22T01:30:05.975Z,6.45
2022-08-22T01:32:59.147Z,8.90
2022-08-22T01:35:38.914Z,6.50
2022-08-22T01:38:29.265Z,7.37
2022-08-22T01:41:22.939Z,7.30
2022-08-22T01:44:05.206Z,9.68
2022-08-22T01:46:53.587Z,6.83
2022-08-22T01:49:27.141Z,9.33
2022-08-22T01:52:15.680Z,8.20
2022-08-22T01:54:54.756Z,8.88
2022-08-22T01:57:26.958Z,9.80
2022-08-22T02:00:00.578Z,8.40
2022-08-22T02:02:55.209Z,6.85
2022-08-22T02:05:31.798Z,8.00
2022-08-22T02:08:09.597Z,8.13
2022-08-22T02:11:01.332Z,7.67
2022-08-22T02:13:37.461Z,7.65
2022-08-22T02:16:17.850Z,8.75
2022-08-22T02:18:57.647Z,6.60
2022-08-22T02:21:31.106Z,7.42
2022-08-22T02:24:06.657Z,6.90
2022-08-22T02:27:01.377Z,7.53
2022-08-22T02:29:53.150Z,8.40
2022-08-22T02:32:44.861Z,8.48
2022-08-22T02:35:21.144Z,8.95
2022-08-22T02:38:28.373Z,7.67
2022-08-22T02:41:17.648Z,7.22
2022-08-22T02:43:57.577Z,7.10
2022-08-22T02:46:34.155Z,7.62
2022-08-22T02:49:28.712Z,6.80
2022-08-22T02:52:24.220Z,8.43
2022-08-22T02:55:06.766Z,6.87
2022-08-22T02:57:47.583Z,7.85
2022-08-22T03:00:32.476Z,8.00
2022-08-22T03:03:22.576Z,7.03
2022-08-22T03:06:32.818Z,7.35
2022-08-22T03:09:21.329Z,6.62
2022-08-22T03:12:01.757Z,7.75
2022-08-22T03:14:35.651Z,8.35
2022-08-22T03:17:11.726Z,7.05
2022-08-22T03:19:51.033Z,6.80
2022-08-22T03:22:39.428Z,7.10
2022-08-22T03:25:21.476Z,7.78
2022-08-22T03:28:01.915Z,6.95
2022-08-22T03:30:38.886Z,7.20
2022-08-22T03:33:27.548Z,6.62
2022-08-22T03:36:19.478Z,7.28
2022-08-22T03:39:16.575Z,7.80
2022-08-22T03:42:04.545Z,8.15
2022-08-22T03:44:59.587Z,6.75
2022-08-22T03:47:35.932Z,6.65
2022-08-22T03:50:21.103Z,6.37
2022-08-22T03:53:18.701Z,7.33
2022-08-22T03:56:15.268Z,8.08
2022-08-22T03:58:44.154Z,7.05
2022-08-22T04:01:21.823Z,7.35
2022-08-22T04:04:13.375Z,8.23
2022-08-22T04:06:53.735Z,6.65
2022-08-22T04:09:37.013Z,7.97
2022-08-22T04:12:16.541Z,8.45
2022-08-22T04:15:01.349Z,8.70
2022-08-22T04:17:37.298Z,6.75
2022-08-22T04:20:34.700Z,7.92
2022-08-22T04:23:16.998Z,9.03
2022-08-22T04:26:12.078Z,8.20
2022-08-22T04:28:45.657Z,11.80
2022-08-22T04:31:25.308Z,15.28
2022-08-22T04:33:58.922Z,7.83
2022-08-22T04:36:32.486Z,8.68
2022-08-22T04:39:21.131Z,7.85
2022-08-22T04:42:31.835Z,9.30
2022-08-22T04:44:55.272Z,6.80
2022-08-22T04:47:46.005Z,8.60
2022-08-22T04:50:21.247Z,8.15
2022-08-22T04:53:06.564Z,8.38
2022-08-22T04:55:58.144Z,7.75
2022-08-22T04:58:43.691Z,12.70
2022-08-22T05:01:17.595Z,8.50
2022-08-22T05:04:00.028Z,8.15
2022-08-22T05:06:35.195Z,7.87
2022-08-22T05:09:11.775Z,9.68
2022-08-22T05:11:43.372Z,8.08
2022-08-22T05:14:28.526Z,7.03
2022-08-22T05:17:00.277Z,10.55
2022-08-22T05:19:37.282Z,9.20
2022-08-22T05:22:12.454Z,10.35
2022-08-22T05:24:46.341Z,10.45
2022-08-22T05:27:22.543Z,8.28
2022-08-22T05:29:58.439Z,8.53
2022-08-22T05:32:31.968Z,8.73
2022-08-22T05:35:05.046Z,7.95
2022-08-22T05:37:41.252Z,8.80
2022-08-22T05:40:17.560Z,8.83
2022-08-22T05:42:48.932Z,8.28
2022-08-22T05:45:20.196Z,9.08
2022-08-22T05:47:53.735Z,8.83
2022-08-22T05:50:39.265Z,10.43
2022-08-22T05:53:24.958Z,7.83
2022-08-22T05:56:07.148Z,11.10
2022-08-22T05:58:49.758Z,11.43
2022-08-22T06:01:38.405Z,8.40
2022-08-22T06:04:37.584Z,9.13
2022-08-22T06:07:16.999Z,9.95
2022-08-22T06:09:50.658Z,8.98
2022-08-22T06:12:43.053Z,10.30
2022-08-22T06:15:20.790Z,7.10
2022-08-22T06:18:00.060Z,6.97
2022-08-22T06:20:36.643Z,7.03
2022-08-22T06:23:09.053Z,6.90
2022-08-22T06:25:42.625Z,8.53
2022-08-22T06:28:16.145Z,9.88
2022-08-22T06:30:48.148Z,5.97
2022-08-22T06:33:21.984Z,7.17
2022-08-22T06:36:13.599Z,6.70
2022-08-22T06:39:10.176Z,6.08
2022-08-22T06:42:03.137Z,7.22
2022-08-22T06:44:39.682Z,7.47
2022-08-22T06:47:15.885Z,7.28
2022-08-22T06:49:47.074Z,6.58
2022-08-22T06:52:23.826Z,7.95
2022-08-22T06:55:00.416Z,5.80
2022-08-22T06:57:36.857Z,6.62
2022-08-22T07:00:10.613Z,5.55
2022-08-22T07:02:49.795Z,6.87
2022-08-22T07:05:26.223Z,5.92
2022-08-22T07:07:58.103Z,8.70
2022-08-22T07:10:28.769Z,6.37
2022-08-22T07:13:00.523Z,4.85
2022-08-22T07:15:37.087Z,6.50
2022-08-22T07:18:19.467Z,5.53
2022-08-22T07:20:55.195Z,6.30
2022-08-22T07:23:39.902Z,6.65
2022-08-22T07:26:35.569Z,4.90
2022-08-22T07:29:18.337Z,3.33
2022-08-22T07:32:00.865Z,5.30
2022-08-22T07:34:38.021Z,3.92
2022-08-22T07:37:17.671Z,3.30
2022-08-22T07:39:54.197Z,4.42
2022-08-22T07:42:30.375Z,4.53
2022-08-22T07:45:09.891Z,4.33
2022-08-22T07:47:52.651Z,4.35
2022-08-22T07:50:26.156Z,3.95
2022-08-22T07:52:59.620Z,4.92
2022-08-22T07:55:30.217Z,5.15
2022-08-22T07:58:03.986Z,5.05
2022-08-22T08:00:38.310Z,4.25
2022-08-22T08:03:11.068Z,5.60
2022-08-22T08:05:45.262Z,4.78
2022-08-22T08:08:36.760Z,4.58
2022-08-22T08:11:10.797Z,4.45
2022-08-22T08:13:44.962Z,5.15
2022-08-22T08:16:22.831Z,5.25
2022-08-22T08:18:56.925Z,6.28
2022-08-22T08:21:33.332Z,5.00
2022-08-22T08:24:05.989Z,4.50
2022-08-22T08:26:44.182Z,2.83
2022-08-22T08:29:18.829Z,2.55
2022-08-22T08:31:51.521Z,4.80
2022-08-22T08:34:25.203Z,4.10
2022-08-22T08:37:07.727Z,4.87
2022-08-22T08:39:48.495Z,3.58
2022-08-22T08:42:24.785Z,4.25
2022-08-22T08:45:07.549Z,3.98
2022-08-22T08:47:46.870Z,4.40
2022-08-22T08:50:21.522Z,5.33
2022-08-22T08:53:24.205Z,4.35
2022-08-22T08:56:22.382Z,2.37
2022-08-22T08:58:57.624Z,2.92
2022-08-22T09:01:46.340Z,3.77
2022-08-22T09:04:25.854Z,3.83
2022-08-22T09:07:08.548Z,3.35
2022-08-22T09:10:00.047Z,5.08
2022-08-22T09:13:11.720Z,3.20
2022-08-22T09:15:37.555Z,4.65
2022-08-22T09:18:22.440Z,5.28
2022-08-22T09:21:04.658Z,4.95
2022-08-22T09:24:07.555Z,5.33
2022-08-22T09:26:48.682Z,3.50
2022-08-22T09:29:54.974Z,3.37
2022-08-22T09:32:33.917Z,5.65
2022-08-22T09:35:23.173Z,5.42
2022-08-22T09:38:12.863Z,3.92
2022-08-22T09:41:03.426Z,4.95
2022-08-22T09:44:05.053Z,6.45
2022-08-22T09:47:07.560Z,3.98
2022-08-22T09:49:44.795Z,5.55
2022-08-22T09:52:40.741Z,5.92
2022-08-22T09:55:16.912Z,6.00
2022-08-22T09:57:53.927Z,5.22
2022-08-22T10:00:27.513Z,3.30
2022-08-22T10:03:32.319Z,4.62
2022-08-22T10:06:09.129Z,4.37
2022-08-22T10:09:00.581Z,4.08
2022-08-22T10:11:46.018Z,3.47
2022-08-22T10:14:23.160Z,6.12
2022-08-22T10:17:21.766Z,5.10
2022-08-22T10:19:57.107Z,3.90
2022-08-22T10:22:53.293Z,4.33
2022-08-22T10:25:31.376Z,4.22
2022-08-22T10:28:06.826Z,4.67
2022-08-22T10:30:50.939Z,4.53
2022-08-22T10:33:29.695Z,3.42
2022-08-22T10:36:11.981Z,5.20
2022-08-22T10:38:47.515Z,4.97
2022-08-22T10:41:30.533Z,2.58
2022-08-22T10:44:07.031Z,3.12
2022-08-22T10:46:58.198Z,3.70
2022-08-22T10:49:40.779Z,3.40
2022-08-22T10:52:15.685Z,2.72
2022-08-22T10:55:09.889Z,3.52
2022-08-22T10:57:57.635Z,3.77
2022-08-22T11:00:37.183Z,3.90
2022-08-22T11:03:27.715Z,3.45
2022-08-22T11:06:04.535Z,4.17
2022-08-22T11:08:40.908Z,4.67
2022-08-22T11:11:35.696Z,4.17
2022-08-22T11:14:17.480Z,2.87
2022-08-22T11:17:29.937Z,6.83
2022-08-22T11:20:20.443Z,3.12
2022-08-22T11:23:12.491Z,4.05
2022-08-22T11:25:52.375Z,4.00
2022-08-22T11:28:33.406Z,2.40
2022-08-22T11:31:20.060Z,2.45
2022-08-22T11:34:00.991Z,3.10
2022-08-22T11:36:38.796Z,4.47
2022-08-22T11:39:18.384Z,3.33
2022-08-22T11:42:21.860Z,4.55
2022-08-22T11:45:02.368Z,3.22
2022-08-22T11:47:37.708Z,3.15
2022-08-22T11:50:22.939Z,3.55
2022-08-22T11:53:16.078Z,3.52
2022-08-22T11:56:19.856Z,4.65
2022-08-22T11:59:05.951Z,3.55
2022-08-22T12:01:40.664Z,5.55
2022-08-22T12:04:14.157Z,4.25
2022-08-22T12:06:49.821Z,4.95
2022-08-22T12:09:23.608Z,3.45
2022-08-22T12:12:21.613Z,2.45
2022-08-22T12:15:25.796Z,5.53
2022-08-22T12:18:23.748Z,3.27
2022-08-22T12:21:33.882Z,5.28
2022-08-22T12:24:21.096Z,7.75
2022-08-22T12:27:07.758Z,4.15
2022-08-22T12:29:53.695Z,2.87
2022-08-22T12:32:45.771Z,4.70
2022-08-22T12:35:31.295Z,3.77
2022-08-22T12:38:28.013Z,5.12
2022-08-22T12:41:13.331Z,3.62
2022-08-22T12:43:51.557Z,3.67
2022-08-22T12:46:37.841Z,4.28
2022-08-22T12:49:13.077Z,4.03
2022-08-22T12:51:46.847Z,3.08
2022-08-22T12:54:43.054Z,4.53
2022-08-22T12:57:24.243Z,2.65
2022-08-22T12:59:58.164Z,2.60
2022-08-22T13:02:31.927Z,3.35
2022-08-22T13:05:05.458Z,3.45
2022-08-22T13:07:38.914Z,4.15
2022-08-22T13:10:38.124Z,3.52
2022-08-22T13:13:12.759Z,4.37
2022-08-22T13:15:53.506Z,2.75
2022-08-22T13:18:31.132Z,2.87
2022-08-22T13:21:03.080Z,3.27
2022-08-22T13:23:41.920Z,5.58
2022-08-22T13:26:33.081Z,4.05
2022-08-22T13:29:24.019Z,3.92
2022-08-22T13:31:39.678Z,3.45
2022-08-22T13:34:13.121Z,3.25
2022-08-22T13:36:51.819Z,4.30
2022-08-22T13:39:22.001Z,3.45
2022-08-22T13:41:55.488Z,3.33
2022-08-22T13:44:44.112Z,2.47
2022-08-22T13:47:20.903Z,4.33
2022-08-22T13:49:56.070Z,2.70
2022-08-22T13:52:37.926Z,3.60
2022-08-22T13:55:29.926Z,4.15
2022-08-22T13:58:25.102Z,3.70
2022-08-22T14:01:16.249Z,3.37
2022-08-22T14:04:04.958Z,2.90
2022-08-22T14:06:53.576Z,2.95
2022-08-22T14:09:41.740Z,2.65
2022-08-22T14:12:18.380Z,2.77
2022-08-22T14:14:52.411Z,5.20
2022-08-22T14:17:25.990Z,4.85
2022-08-22T14:20:06.935Z,2.90
2022-08-22T14:22:41.700Z,7.70
2022-08-22T14:25:21.532Z,3.40
2022-08-22T14:27:59.625Z,3.20
2022-08-22T14:30:34.777Z,3.47
2022-08-22T14:33:08.393Z,2.75
2022-08-22T14:35:42.045Z,3.72
2022-08-22T14:38:21.626Z,3.12
2022-08-22T14:40:57.167Z,3.77
2022-08-22T14:43:35.095Z,4.28
2022-08-22T14:46:13.078Z,3.00
2022-08-22T14:48:46.838Z,3.95
2022-08-22T14:51:21.363Z,3.92
2022-08-22T14:53:52.622Z,3.70
2022-08-22T14:56:27.831Z,3.83
2022-08-22T14:59:04.177Z,4.50
2022-08-22T15:01:37.850Z,5.25
2022-08-22T15:04:18.896Z,4.53
2022-08-22T15:06:55.357Z,3.72
2022-08-22T15:09:43.513Z,3.98
2022-08-22T15:12:32.289Z,3.72
2022-08-22T15:15:05.847Z,3.33
2022-08-22T15:17:44.461Z,2.90
2022-08-22T15:20:27.613Z,4.58
2022-08-22T15:23:00.656Z,3.87
2022-08-22T15:25:41.131Z,3.55
2022-08-22T15:28:20.338Z,3.22
2022-08-22T15:30:54.188Z,3.58
2022-08-22T15:33:35.113Z,3.83
2022-08-22T15:36:16.380Z,3.55
2022-08-22T15:38:49.672Z,4.95
2022-08-22T15:41:36.212Z,3.55
2022-08-22T15:44:32.463Z,5.53
2022-08-22T15:47:31.494Z,3.52
2022-08-22T15:50:07.907Z,3.75
2022-08-22T15:53:04.905Z,3.37
2022-08-22T15:55:31.790Z,7.47
2022-08-22T15:58:14.077Z,4.45
2022-08-22T16:00:48.188Z,3.90
2022-08-22T16:03:28.006Z,2.98
2022-08-22T16:06:08.010Z,4.03
2022-08-22T16:08:47.770Z,4.33
2022-08-22T16:11:38.749Z,2.90
2022-08-22T16:14:36.822Z,3.90
2022-08-22T16:17:10.409Z,4.90
2022-08-22T16:19:40.876Z,3.62
2022-08-22T16:22:13.097Z,2.77
2022-08-22T16:25:02.976Z,3.12
2022-08-22T16:27:34.582Z,3.50
2022-08-22T16:30:11.320Z,4.65
2022-08-22T16:32:46.740Z,4.10
2022-08-22T16:35:37.072Z,3.52
2022-08-22T16:38:09.054Z,4.78
2022-08-22T16:40:42.701Z,3.92
2022-08-22T16:43:16.176Z,3.98
2022-08-22T16:45:48.595Z,3.40
2022-08-22T16:48:33.455Z,3.98
2022-08-22T16:51:07.042Z,2.87
2022-08-22T16:53:45.800Z,4.10
2022-08-22T16:56:29.605Z,3.58
2022-08-22T16:59:22.030Z,4.97
2022-08-22T17:02:04.736Z,8.45
2022-08-22T17:05:10.531Z,4.35
2022-08-22T17:08:02.032Z,25.00
2022-08-22T17:10:44.571Z,5.90
2022-08-22T17:13:46.804Z,3.47
2022-08-22T17:16:47.262Z,4.58
2022-08-22T17:19:42.551Z,3.35
2022-08-22T17:22:44.662Z,4.33
2022-08-22T17:25:21.311Z,3.47
2022-08-22T17:28:04.562Z,3.47
2022-08-22T17:30:50.067Z,4.87
2022-08-22T17:33:37.307Z,4.30
2022-08-22T17:36:27.148Z,3.72
2022-08-22T17:39:04.724Z,3.70
2022-08-22T17:41:47.261Z,4.75
2022-08-22T17:44:24.444Z,4.30
2022-08-22T17:47:09.824Z,4.85
2022-08-22T17:49:46.102Z,3.85
2022-08-22T17:52:28.490Z,6.25
2022-08-22T17:55:07.899Z,5.22
2022-08-22T17:57:42.870Z,6.17
2022-08-22T18:00:30.573Z,5.08
2022-08-22T18:03:24.601Z,3.35
2022-08-22T18:06:07.237Z,4.70
2022-08-22T18:11:28.367Z,3.90
2022-08-22T18:14:26.385Z,4.05
2022-08-22T18:16:59.363Z,4.17
2022-08-22T18:19:46.695Z,4.17
2022-08-22T18:22:24.390Z,5.62
2022-08-22T18:25:09.497Z,3.02
2022-08-22T18:27:48.566Z,4.12
2022-08-22T18:30:22.584Z,5.12
2022-08-22T18:33:11.213Z,5.58
2022-08-22T18:35:54.486Z,4.92
2022-08-22T18:38:36.833Z,4.00
2022-08-22T18:41:23.366Z,5.65
2022-08-22T18:43:56.362Z,3.10
2022-08-22T18:46:35.738Z,3.02
2022-08-22T18:49:16.113Z,3.70
2022-08-22T18:52:17.403Z,4.55
2022-08-22T18:55:06.093Z,4.15
2022-08-22T18:58:03.682Z,5.53
2022-08-22T19:01:00.045Z,4.40
2022-08-22T19:04:10.046Z,3.87
2022-08-22T19:07:09.960Z,6.33
2022-08-22T19:10:10.170Z,3.65
2022-08-22T19:13:03.045Z,5.00
2022-08-22T19:15:48.553Z,4.35
2022-08-22T19:18:44.595Z,9.08
2022-08-22T19:21:48.630Z,11.30
2022-08-22T19:24:27.899Z,4.40
2022-08-22T19:27:21.286Z,6.35
2022-08-22T19:29:55.276Z,5.35
2022-08-22T19:32:48.071Z,4.85
2022-08-22T19:35:28.528Z,6.15
2022-08-22T19:38:01.758Z,3.20
2022-08-22T19:40:50.542Z,3.62
2022-08-22T19:43:36.774Z,4.25
2022-08-22T19:46:10.959Z,5.50
2022-08-22T19:48:51.960Z,6.20
2022-08-22T19:51:28.374Z,5.17
2022-08-22T19:54:21.741Z,4.00
2022-08-22T19:57:07.147Z,3.87
2022-08-22T20:00:00.458Z,3.35
2022-08-22T20:02:58.126Z,5.40
2022-08-22T20:05:35.026Z,2.65
2022-08-22T20:08:31.136Z,3.33
2022-08-22T20:11:16.632Z,2.83
2022-08-22T20:13:47.362Z,3.62
2022-08-22T20:16:23.105Z,4.17
2022-08-22T20:19:09.607Z,2.65
2022-08-22T20:22:03.490Z,2.75
2022-08-22T20:25:01.676Z,2.85
2022-08-22T20:27:38.481Z,2.60
2022-08-22T20:30:12.049Z,3.98
2022-08-22T20:32:45.661Z,3.00
2022-08-22T20:35:22.031Z,4.58
2022-08-22T20:38:07.210Z,3.90
2022-08-22T20:40:56.228Z,3.65
2022-08-22T20:43:30.646Z,6.42
2022-08-22T20:46:21.971Z,8.53
2022-08-22T20:48:57.165Z,5.05
2022-08-22T20:51:31.628Z,4.00
2022-08-22T20:54:10.234Z,7.65
2022-08-22T20:56:48.737Z,8.88
2022-08-22T20:59:40.083Z,4.70
2022-08-22T21:02:16.348Z,4.58
2022-08-22T21:04:53.117Z,3.90
2022-08-22T21:07:29.366Z,4.17
2022-08-22T21:10:25.531Z,4.97
2022-08-22T21:13:15.723Z,5.15
2022-08-22T21:15:52.128Z,3.67
2022-08-22T21:18:34.488Z,4.17
2022-08-22T21:21:20.070Z,4.22
2022-08-22T21:23:59.918Z,5.70
2022-08-22T21:26:30.225Z,5.50
2022-08-22T21:29:15.531Z,4.83
2022-08-22T21:31:49.341Z,6.05
2022-08-22T21:34:25.725Z,5.15
2022-08-22T21:36:59.461Z,5.65
2022-08-22T21:39:32.990Z,4.08
2022-08-22T21:42:06.554Z,6.55
2022-08-22T21:44:39.957Z,6.62
2022-08-22T21:47:31.727Z,6.35
2022-08-22T21:50:08.194Z,4.58
2022-08-22T21:52:41.667Z,4.50
2022-08-22T21:55:24.224Z,5.37
2022-08-22T21:58:35.735Z,5.75
2022-08-22T22:00:58.564Z,5.67
2022-08-22T22:03:31.856Z,4.08
2022-08-22T22:06:05.334Z,6.30
2022-08-22T22:08:35.785Z,5.15
2022-08-22T22:11:09.515Z,4.80
2022-08-22T22:13:40.179Z,5.55
2022-08-22T22:16:13.439Z,5.37
2022-08-22T22:18:44.009Z,4.37
2022-08-22T22:21:14.513Z,6.62
2022-08-22T22:23:45.050Z,6.97
2022-08-22T22:26:18.446Z,4.28
2022-08-22T22:28:50.322Z,5.78
2022-08-22T22:31:20.948Z,5.03
2022-08-22T22:33:51.515Z,6.12
2022-08-22T22:36:25.031Z,5.15
2022-08-22T22:38:59.191Z,5.28
2022-08-22T22:41:30.934Z,4.67
2022-08-22T22:44:02.175Z,4.97
2022-08-22T22:46:32.730Z,5.80
2022-08-22T22:49:09.215Z,5.60
2022-08-22T22:51:41.482Z,6.05
2022-08-22T22:54:12.311Z,6.97
2022-08-22T22:56:48.039Z,5.03
2022-08-22T22:59:16.698Z,4.83
2022-08-22T23:02:12.123Z,4.55
2022-08-22T23:04:45.221Z,6.03
2022-08-22T23:07:18.411Z,4.45
2022-08-22T23:09:48.829Z,5.62
2022-08-22T23:12:23.482Z,4.58
2022-08-22T23:14:54.336Z,5.53
2022-08-22T23:17:24.943Z,6.00
2022-08-22T23:19:56.981Z,5.25
2022-08-22T23:22:27.697Z,5.03
2022-08-22T23:24:58.151Z,7.22
2022-08-22T23:27:28.700Z,5.30
2022-08-22T23:30:02.176Z,6.42
2022-08-22T23:32:33.931Z,6.65
2022-08-22T23:35:11.259Z,6.12
2022-08-22T23:37:38.687Z,5.65
2022-08-22T23:40:10.762Z,5.45
2022-08-22T23:42:43.052Z,4.60
2022-08-22T23:45:13.846Z,5.40
2022-08-22T23:47:46.002Z,7.55
2022-08-22T23:50:16.694Z,6.00
2022-08-22T23:52:48.730Z,5.05
2022-08-22T23:55:19.468Z,5.35
2022-08-22T23:57:51.206Z,5.42
